sensor_id;sensor_type;location;lat;lon;timestamp;temperature;humidity
34776;DHT22;20989;52.566;13.346;2022-07-06T00:00:42;26.30;39.50
34776;DHT22;20989;52.566;13.346;2022-07-06T00:03:43;26.30;39.50
34776;DHT22;20989;52.566;13.346;2022-07-06T00:06:44;26.30;39.50
34776;DHT22;20989;52.566;13.346;2022-07-06T00:09:44;26.30;39.60
34776;DHT22;20989;52.566;13.346;2022-07-06T00:12:45;26.30;39.60
34776;DHT22;20989;52.566;13.346;2022-07-06T00:15:46;26.40;39.70
34776;DHT22;20989;52.566;13.346;2022-07-06T00:18:47;26.40;39.70
34776;DHT22;20989;52.566;13.346;2022-07-06T00:21:48;26.30;39.70
34776;DHT22;20989;52.566;13.346;2022-07-06T00:24:48;26.30;39.70
34776;DHT22;20989;52.566;13.346;2022-07-06T00:27:49;26.30;39.70
34776;DHT22;20989;52.566;13.346;2022-07-06T00:30:50;26.30;39.70
34776;DHT22;20989;52.566;13.346;2022-07-06T00:33:50;26.30;39.70
34776;DHT22;20989;52.566;13.346;2022-07-06T00:36:51;26.30;39.70
34776;DHT22;20989;52.566;13.346;2022-07-06T00:39:51;26.30;39.80
34776;DHT22;20989;52.566;13.346;2022-07-06T00:42:52;26.30;39.80
34776;DHT22;20989;52.566;13.346;2022-07-06T00:45:53;26.30;39.80
34776;DHT22;20989;52.566;13.346;2022-07-06T00:48:54;26.30;39.80
34776;DHT22;20989;52.566;13.346;2022-07-06T00:51:55;26.30;39.80
34776;DHT22;20989;52.566;13.346;2022-07-06T00:54:56;26.30;39.80
34776;DHT22;20989;52.566;13.346;2022-07-06T00:57:58;26.30;39.80
34776;DHT22;20989;52.566;13.346;2022-07-06T01:01:01;26.30;39.90
34776;DHT22;20989;52.566;13.346;2022-07-06T01:04:02;26.30;39.90
34776;DHT22;20989;52.566;13.346;2022-07-06T01:07:03;26.30;39.90
34776;DHT22;20989;52.566;13.346;2022-07-06T01:10:04;26.30;39.90
34776;DHT22;20989;52.566;13.346;2022-07-06T01:13:05;26.30;40.00
34776;DHT22;20989;52.566;13.346;2022-07-06T01:16:06;26.30;39.90
34776;DHT22;20989;52.566;13.346;2022-07-06T01:19:07;26.30;39.90
34776;DHT22;20989;52.566;13.346;2022-07-06T01:22:09;26.30;40.00
34776;DHT22;20989;52.566;13.346;2022-07-06T01:25:10;26.30;40.00
34776;DHT22;20989;52.566;13.346;2022-07-06T01:28:11;26.30;40.00
34776;DHT22;20989;52.566;13.346;2022-07-06T01:31:23;26.30;40.00
34776;DHT22;20989;52.566;13.346;2022-07-06T01:34:24;26.30;40.00
34776;DHT22;20989;52.566;13.346;2022-07-06T01:37:25;26.30;40.00
34776;DHT22;20989;52.566;13.346;2022-07-06T01:40:26;26.30;40.00
34776;DHT22;20989;52.566;13.346;2022-07-06T01:43:26;26.30;40.00
34776;DHT22;20989;52.566;13.346;2022-07-06T01:46:27;26.30;40.10
34776;DHT22;20989;52.566;13.346;2022-07-06T01:49:28;26.30;40.00
34776;DHT22;20989;52.566;13.346;2022-07-06T01:52:29;26.30;40.10
34776;DHT22;20989;52.566;13.346;2022-07-06T01:55:30;26.20;40.00
34776;DHT22;20989;52.566;13.346;2022-07-06T01:58:30;26.30;40.60
34776;DHT22;20989;52.566;13.346;2022-07-06T02:01:31;26.30;40.10
34776;DHT22;20989;52.566;13.346;2022-07-06T02:04:32;26.20;40.10
34776;DHT22;20989;52.566;13.346;2022-07-06T02:07:33;26.20;40.00
34776;DHT22;20989;52.566;13.346;2022-07-06T02:10:33;26.20;40.10
34776;DHT22;20989;52.566;13.346;2022-07-06T02:13:35;26.20;40.10
34776;DHT22;20989;52.566;13.346;2022-07-06T02:16:36;26.20;40.10
34776;DHT22;20989;52.566;13.346;2022-07-06T02:19:37;26.30;40.20
34776;DHT22;20989;52.566;13.346;2022-07-06T02:22:37;26.20;40.10
34776;DHT22;20989;52.566;13.346;2022-07-06T02:25:38;26.30;40.20
34776;DHT22;20989;52.566;13.346;2022-07-06T02:28:39;26.20;40.10
34776;DHT22;20989;52.566;13.346;2022-07-06T02:31:39;26.20;40.20
34776;DHT22;20989;52.566;13.346;2022-07-06T02:34:40;26.20;40.70
34776;DHT22;20989;52.566;13.346;2022-07-06T02:37:41;26.20;40.20
34776;DHT22;20989;52.566;13.346;2022-07-06T02:40:42;26.20;40.20
34776;DHT22;20989;52.566;13.346;2022-07-06T02:43:43;26.20;40.20
34776;DHT22;20989;52.566;13.346;2022-07-06T02:46:44;26.20;40.20
34776;DHT22;20989;52.566;13.346;2022-07-06T02:49:45;26.20;40.30
34776;DHT22;20989;52.566;13.346;2022-07-06T02:52:46;26.20;40.30
34776;DHT22;20989;52.566;13.346;2022-07-06T02:55:46;26.20;40.30
34776;DHT22;20989;52.566;13.346;2022-07-06T02:58:47;26.20;40.30
34776;DHT22;20989;52.566;13.346;2022-07-06T03:01:48;26.20;40.30
34776;DHT22;20989;52.566;13.346;2022-07-06T03:04:49;26.20;40.40
34776;DHT22;20989;52.566;13.346;2022-07-06T03:07:50;26.20;40.40
34776;DHT22;20989;52.566;13.346;2022-07-06T03:10:50;26.20;40.40
34776;DHT22;20989;52.566;13.346;2022-07-06T03:13:51;26.20;40.40
34776;DHT22;20989;52.566;13.346;2022-07-06T03:16:52;26.20;40.40
34776;DHT22;20989;52.566;13.346;2022-07-06T03:19:53;26.20;40.50
34776;DHT22;20989;52.566;13.346;2022-07-06T03:22:54;26.20;40.50
34776;DHT22;20989;52.566;13.346;2022-07-06T03:25:54;26.20;40.50
34776;DHT22;20989;52.566;13.346;2022-07-06T03:28:55;26.20;40.50
34776;DHT22;20989;52.566;13.346;2022-07-06T03:31:56;26.20;40.50
34776;DHT22;20989;52.566;13.346;2022-07-06T03:34:57;26.20;40.60
34776;DHT22;20989;52.566;13.346;2022-07-06T03:37:57;26.20;40.60
34776;DHT22;20989;52.566;13.346;2022-07-06T03:40:59;26.20;40.60
34776;DHT22;20989;52.566;13.346;2022-07-06T03:44:01;26.20;40.60
34776;DHT22;20989;52.566;13.346;2022-07-06T03:47:02;26.20;40.60
34776;DHT22;20989;52.566;13.346;2022-07-06T03:50:04;26.10;40.60
34776;DHT22;20989;52.566;13.346;2022-07-06T03:53:05;26.20;40.60
34776;DHT22;20989;52.566;13.346;2022-07-06T03:56:05;26.20;40.60
34776;DHT22;20989;52.566;13.346;2022-07-06T03:59:25;26.10;40.60
34776;DHT22;20989;52.566;13.346;2022-07-06T04:02:25;26.10;40.60
34776;DHT22;20989;52.566;13.346;2022-07-06T04:05:26;26.10;40.60
34776;DHT22;20989;52.566;13.346;2022-07-06T04:08:27;26.10;40.70
34776;DHT22;20989;52.566;13.346;2022-07-06T04:11:28;26.10;40.70
34776;DHT22;20989;52.566;13.346;2022-07-06T04:14:30;26.10;40.70
34776;DHT22;20989;52.566;13.346;2022-07-06T04:17:30;26.10;40.60
34776;DHT22;20989;52.566;13.346;2022-07-06T04:20:50;26.10;40.70
34776;DHT22;20989;52.566;13.346;2022-07-06T04:23:51;26.10;40.70
34776;DHT22;20989;52.566;13.346;2022-07-06T04:26:52;26.10;40.70
34776;DHT22;20989;52.566;13.346;2022-07-06T04:29:53;26.10;40.70
34776;DHT22;20989;52.566;13.346;2022-07-06T04:32:53;26.10;40.70
34776;DHT22;20989;52.566;13.346;2022-07-06T04:35:56;26.10;40.70
34776;DHT22;20989;52.566;13.346;2022-07-06T04:38:56;26.10;40.80
34776;DHT22;20989;52.566;13.346;2022-07-06T04:41:57;26.10;40.70
34776;DHT22;20989;52.566;13.346;2022-07-06T04:44:58;26.10;40.70
34776;DHT22;20989;52.566;13.346;2022-07-06T04:47:59;26.10;40.80
34776;DHT22;20989;52.566;13.346;2022-07-06T04:50:59;26.10;40.80
34776;DHT22;20989;52.566;13.346;2022-07-06T04:54:00;26.10;40.80
34776;DHT22;20989;52.566;13.346;2022-07-06T04:57:01;26.10;40.80
34776;DHT22;20989;52.566;13.346;2022-07-06T05:00:39;26.10;40.80
34776;DHT22;20989;52.566;13.346;2022-07-06T05:03:40;26.10;40.80
34776;DHT22;20989;52.566;13.346;2022-07-06T05:06:41;26.10;40.80
34776;DHT22;20989;52.566;13.346;2022-07-06T05:09:42;26.10;40.80
34776;DHT22;20989;52.566;13.346;2022-07-06T05:12:42;26.10;40.80
34776;DHT22;20989;52.566;13.346;2022-07-06T05:15:43;26.10;40.80
34776;DHT22;20989;52.566;13.346;2022-07-06T05:18:44;26.10;40.80
34776;DHT22;20989;52.566;13.346;2022-07-06T05:21:45;26.10;40.80
34776;DHT22;20989;52.566;13.346;2022-07-06T05:24:46;26.10;40.80
34776;DHT22;20989;52.566;13.346;2022-07-06T05:27:47;26.10;40.80
34776;DHT22;20989;52.566;13.346;2022-07-06T05:30:47;26.10;40.80
34776;DHT22;20989;52.566;13.346;2022-07-06T05:33:48;26.10;40.80
34776;DHT22;20989;52.566;13.346;2022-07-06T05:36:49;26.10;40.90
34776;DHT22;20989;52.566;13.346;2022-07-06T05:39:49;26.10;40.90
34776;DHT22;20989;52.566;13.346;2022-07-06T05:42:51;26.10;40.90
34776;DHT22;20989;52.566;13.346;2022-07-06T05:45:51;26.10;40.90
34776;DHT22;20989;52.566;13.346;2022-07-06T05:48:52;26.10;40.80
34776;DHT22;20989;52.566;13.346;2022-07-06T05:52:11;26.10;40.90
34776;DHT22;20989;52.566;13.346;2022-07-06T05:55:13;26.00;41.40
34776;DHT22;20989;52.566;13.346;2022-07-06T05:58:15;26.10;40.90
34776;DHT22;20989;52.566;13.346;2022-07-06T06:01:16;26.00;40.80
34776;DHT22;20989;52.566;13.346;2022-07-06T06:04:17;26.00;40.80
34776;DHT22;20989;52.566;13.346;2022-07-06T06:07:18;26.00;40.80
34776;DHT22;20989;52.566;13.346;2022-07-06T06:10:19;26.10;40.90
34776;DHT22;20989;52.566;13.346;2022-07-06T06:13:23;26.10;40.90
34776;DHT22;20989;52.566;13.346;2022-07-06T06:16:23;26.10;40.90
34776;DHT22;20989;52.566;13.346;2022-07-06T06:19:24;26.10;40.90
34776;DHT22;20989;52.566;13.346;2022-07-06T06:22:25;26.10;40.90
34776;DHT22;20989;52.566;13.346;2022-07-06T06:25:34;26.00;40.80
34776;DHT22;20989;52.566;13.346;2022-07-06T06:28:35;26.10;40.90
34776;DHT22;20989;52.566;13.346;2022-07-06T06:31:37;26.10;40.90
34776;DHT22;20989;52.566;13.346;2022-07-06T06:34:38;26.00;40.80
34776;DHT22;20989;52.566;13.346;2022-07-06T06:37:39;26.10;40.90
34776;DHT22;20989;52.566;13.346;2022-07-06T06:40:40;26.00;40.80
34776;DHT22;20989;52.566;13.346;2022-07-06T06:43:41;26.00;40.80
34776;DHT22;20989;52.566;13.346;2022-07-06T06:46:42;26.00;40.80
34776;DHT22;20989;52.566;13.346;2022-07-06T06:49:43;26.00;40.80
34776;DHT22;20989;52.566;13.346;2022-07-06T06:52:43;26.00;40.90
34776;DHT22;20989;52.566;13.346;2022-07-06T06:55:44;26.00;40.80
34776;DHT22;20989;52.566;13.346;2022-07-06T06:58:45;26.00;40.90
34776;DHT22;20989;52.566;13.346;2022-07-06T07:01:46;26.10;40.90
34776;DHT22;20989;52.566;13.346;2022-07-06T07:04:46;26.10;40.90
34776;DHT22;20989;52.566;13.346;2022-07-06T07:07:47;26.00;40.80
34776;DHT22;20989;52.566;13.346;2022-07-06T07:10:48;26.00;40.80
34776;DHT22;20989;52.566;13.346;2022-07-06T07:13:51;26.00;40.80
34776;DHT22;20989;52.566;13.346;2022-07-06T07:16:52;26.10;40.90
34776;DHT22;20989;52.566;13.346;2022-07-06T07:19:52;26.10;40.80
34776;DHT22;20989;52.566;13.346;2022-07-06T07:22:54;26.00;40.70
34776;DHT22;20989;52.566;13.346;2022-07-06T07:25:54;26.10;40.90
34776;DHT22;20989;52.566;13.346;2022-07-06T07:28:55;26.10;40.80
34776;DHT22;20989;52.566;13.346;2022-07-06T07:31:56;26.10;40.70
34776;DHT22;20989;52.566;13.346;2022-07-06T07:34:57;26.00;40.70
34776;DHT22;20989;52.566;13.346;2022-07-06T07:37:58;26.00;40.70
34776;DHT22;20989;52.566;13.346;2022-07-06T07:40:58;26.10;40.70
34776;DHT22;20989;52.566;13.346;2022-07-06T07:43:59;26.00;40.60
34776;DHT22;20989;52.566;13.346;2022-07-06T07:47:00;26.10;40.60
34776;DHT22;20989;52.566;13.346;2022-07-06T07:50:01;26.10;40.70
34776;DHT22;20989;52.566;13.346;2022-07-06T07:53:02;26.00;40.60
34776;DHT22;20989;52.566;13.346;2022-07-06T07:56:02;26.00;40.60
34776;DHT22;20989;52.566;13.346;2022-07-06T07:59:03;26.10;40.70
34776;DHT22;20989;52.566;13.346;2022-07-06T08:02:04;26.00;40.60
34776;DHT22;20989;52.566;13.346;2022-07-06T08:05:05;26.00;40.50
34776;DHT22;20989;52.566;13.346;2022-07-06T08:08:06;26.00;40.40
34776;DHT22;20989;52.566;13.346;2022-07-06T08:11:07;26.00;40.50
34776;DHT22;20989;52.566;13.346;2022-07-06T08:14:08;26.00;40.50
34776;DHT22;20989;52.566;13.346;2022-07-06T08:17:08;26.00;40.40
34776;DHT22;20989;52.566;13.346;2022-07-06T08:20:09;26.00;40.40
34776;DHT22;20989;52.566;13.346;2022-07-06T08:23:10;26.10;40.50
34776;DHT22;20989;52.566;13.346;2022-07-06T08:26:11;26.00;40.50
34776;DHT22;20989;52.566;13.346;2022-07-06T08:29:12;26.00;40.60
34776;DHT22;20989;52.566;13.346;2022-07-06T08:32:13;26.00;40.40
34776;DHT22;20989;52.566;13.346;2022-07-06T08:35:14;26.10;40.40
34776;DHT22;20989;52.566;13.346;2022-07-06T08:38:14;26.00;40.40
34776;DHT22;20989;52.566;13.346;2022-07-06T08:41:18;26.00;40.20
34776;DHT22;20989;52.566;13.346;2022-07-06T08:44:19;26.00;40.30
34776;DHT22;20989;52.566;13.346;2022-07-06T08:47:20;26.00;40.30
34776;DHT22;20989;52.566;13.346;2022-07-06T08:50:22;26.00;40.20
34776;DHT22;20989;52.566;13.346;2022-07-06T08:53:24;26.00;40.30
34776;DHT22;20989;52.566;13.346;2022-07-06T08:56:25;26.00;40.30
34776;DHT22;20989;52.566;13.346;2022-07-06T08:59:26;26.00;40.10
34776;DHT22;20989;52.566;13.346;2022-07-06T09:02:28;26.00;40.20
34776;DHT22;20989;52.566;13.346;2022-07-06T09:05:30;26.00;40.20
34776;DHT22;20989;52.566;13.346;2022-07-06T09:08:32;26.00;40.00
34776;DHT22;20989;52.566;13.346;2022-07-06T09:11:33;26.00;40.10
34776;DHT22;20989;52.566;13.346;2022-07-06T09:14:35;26.10;40.20
34776;DHT22;20989;52.566;13.346;2022-07-06T09:17:40;26.00;40.00
34776;DHT22;20989;52.566;13.346;2022-07-06T09:20:41;26.00;39.90
34776;DHT22;20989;52.566;13.346;2022-07-06T09:23:42;26.00;39.80
34776;DHT22;20989;52.566;13.346;2022-07-06T09:26:45;26.00;39.80
34776;DHT22;20989;52.566;13.346;2022-07-06T09:29:48;26.10;40.10
34776;DHT22;20989;52.566;13.346;2022-07-06T09:32:55;26.00;40.00
34776;DHT22;20989;52.566;13.346;2022-07-06T09:35:55;26.00;39.80
34776;DHT22;20989;52.566;13.346;2022-07-06T09:39:24;26.10;39.80
34776;DHT22;20989;52.566;13.346;2022-07-06T09:42:26;26.10;39.90
34776;DHT22;20989;52.566;13.346;2022-07-06T09:45:28;26.00;39.70
34776;DHT22;20989;52.566;13.346;2022-07-06T09:48:29;26.10;40.00
34776;DHT22;20989;52.566;13.346;2022-07-06T09:51:30;26.00;40.00
34776;DHT22;20989;52.566;13.346;2022-07-06T09:54:35;26.10;40.00
34776;DHT22;20989;52.566;13.346;2022-07-06T09:57:37;26.00;39.70
34776;DHT22;20989;52.566;13.346;2022-07-06T10:00:38;26.00;39.90
34776;DHT22;20989;52.566;13.346;2022-07-06T10:03:39;26.00;39.90
34776;DHT22;20989;52.566;13.346;2022-07-06T10:06:41;26.00;39.70
34776;DHT22;20989;52.566;13.346;2022-07-06T10:09:42;26.00;39.90
34776;DHT22;20989;52.566;13.346;2022-07-06T10:12:44;26.00;40.00
34776;DHT22;20989;52.566;13.346;2022-07-06T10:15:50;26.00;39.90
34776;DHT22;20989;52.566;13.346;2022-07-06T10:18:51;26.10;39.80
34776;DHT22;20989;52.566;13.346;2022-07-06T10:21:58;26.00;39.70
34776;DHT22;20989;52.566;13.346;2022-07-06T10:25:02;26.00;39.90
34776;DHT22;20989;52.566;13.346;2022-07-06T10:28:04;26.00;40.00
34776;DHT22;20989;52.566;13.346;2022-07-06T10:31:18;26.00;40.00
34776;DHT22;20989;52.566;13.346;2022-07-06T10:34:20;26.00;40.00
34776;DHT22;20989;52.566;13.346;2022-07-06T10:37:27;26.00;40.00
34776;DHT22;20989;52.566;13.346;2022-07-06T10:40:32;26.00;39.80
34776;DHT22;20989;52.566;13.346;2022-07-06T10:43:51;26.00;39.70
34776;DHT22;20989;52.566;13.346;2022-07-06T10:46:56;26.10;39.80
34776;DHT22;20989;52.566;13.346;2022-07-06T10:50:01;26.00;39.80
34776;DHT22;20989;52.566;13.346;2022-07-06T10:53:01;26.00;39.60
34776;DHT22;20989;52.566;13.346;2022-07-06T10:56:04;26.00;39.70
34776;DHT22;20989;52.566;13.346;2022-07-06T10:59:27;26.00;39.70
34776;DHT22;20989;52.566;13.346;2022-07-06T11:02:38;26.00;39.60
34776;DHT22;20989;52.566;13.346;2022-07-06T11:05:42;26.10;39.70
34776;DHT22;20989;52.566;13.346;2022-07-06T11:08:54;26.10;39.70
34776;DHT22;20989;52.566;13.346;2022-07-06T11:11:56;26.10;39.80
34776;DHT22;20989;52.566;13.346;2022-07-06T11:14:58;26.10;39.90
34776;DHT22;20989;52.566;13.346;2022-07-06T11:18:12;26.10;39.90
34776;DHT22;20989;52.566;13.346;2022-07-06T11:21:27;26.10;39.90
34776;DHT22;20989;52.566;13.346;2022-07-06T11:24:34;26.10;39.80
34776;DHT22;20989;52.566;13.346;2022-07-06T11:27:36;26.10;39.70
34776;DHT22;20989;52.566;13.346;2022-07-06T11:30:38;26.10;39.70
34776;DHT22;20989;52.566;13.346;2022-07-06T11:33:40;26.00;39.70
34776;DHT22;20989;52.566;13.346;2022-07-06T11:36:41;26.00;39.70
34776;DHT22;20989;52.566;13.346;2022-07-06T11:39:44;26.00;39.70
34776;DHT22;20989;52.566;13.346;2022-07-06T11:42:55;26.00;39.70
34776;DHT22;20989;52.566;13.346;2022-07-06T11:45:56;26.10;39.80
34776;DHT22;20989;52.566;13.346;2022-07-06T11:49:05;26.10;40.00
34776;DHT22;20989;52.566;13.346;2022-07-06T11:52:11;26.10;39.80
34776;DHT22;20989;52.566;13.346;2022-07-06T11:55:14;26.10;39.70
34776;DHT22;20989;52.566;13.346;2022-07-06T11:58:19;26.10;39.80
34776;DHT22;20989;52.566;13.346;2022-07-06T12:01:23;26.10;39.90
34776;DHT22;20989;52.566;13.346;2022-07-06T12:04:25;26.10;39.80
34776;DHT22;20989;52.566;13.346;2022-07-06T12:07:26;26.10;39.80
34776;DHT22;20989;52.566;13.346;2022-07-06T12:10:33;26.10;39.70
34776;DHT22;20989;52.566;13.346;2022-07-06T12:13:37;26.10;39.60
34776;DHT22;20989;52.566;13.346;2022-07-06T12:16:41;26.10;39.70
34776;DHT22;20989;52.566;13.346;2022-07-06T12:19:42;26.10;39.80
34776;DHT22;20989;52.566;13.346;2022-07-06T12:22:43;26.10;40.30
34776;DHT22;20989;52.566;13.346;2022-07-06T12:25:55;26.10;39.70
34776;DHT22;20989;52.566;13.346;2022-07-06T12:29:04;26.10;39.80
34776;DHT22;20989;52.566;13.346;2022-07-06T12:32:20;26.10;39.90
34776;DHT22;20989;52.566;13.346;2022-07-06T12:35:23;26.10;39.90
34776;DHT22;20989;52.566;13.346;2022-07-06T12:38:27;26.10;39.70
34776;DHT22;20989;52.566;13.346;2022-07-06T12:41:33;26.10;39.70
34776;DHT22;20989;52.566;13.346;2022-07-06T12:44:48;26.10;39.80
34776;DHT22;20989;52.566;13.346;2022-07-06T12:48:05;26.10;39.60
34776;DHT22;20989;52.566;13.346;2022-07-06T12:51:06;26.10;39.80
34776;DHT22;20989;52.566;13.346;2022-07-06T12:54:14;26.10;39.80
34776;DHT22;20989;52.566;13.346;2022-07-06T12:57:22;26.10;39.80
34776;DHT22;20989;52.566;13.346;2022-07-06T13:00:26;26.10;39.80
34776;DHT22;20989;52.566;13.346;2022-07-06T13:03:27;26.10;39.80
34776;DHT22;20989;52.566;13.346;2022-07-06T13:06:33;26.10;39.80
34776;DHT22;20989;52.566;13.346;2022-07-06T13:09:34;26.10;39.80
34776;DHT22;20989;52.566;13.346;2022-07-06T13:12:36;26.10;39.50
34776;DHT22;20989;52.566;13.346;2022-07-06T13:15:37;26.10;39.60
34776;DHT22;20989;52.566;13.346;2022-07-06T13:18:38;26.10;39.50
34776;DHT22;20989;52.566;13.346;2022-07-06T13:21:39;26.20;39.60
34776;DHT22;20989;52.566;13.346;2022-07-06T13:24:40;26.20;39.60
34776;DHT22;20989;52.566;13.346;2022-07-06T13:27:41;26.20;39.40
34776;DHT22;20989;52.566;13.346;2022-07-06T13:30:42;26.20;39.40
34776;DHT22;20989;52.566;13.346;2022-07-06T13:33:43;26.20;39.40
34776;DHT22;20989;52.566;13.346;2022-07-06T13:36:44;26.20;39.30
34776;DHT22;20989;52.566;13.346;2022-07-06T13:39:45;26.20;39.20
34776;DHT22;20989;52.566;13.346;2022-07-06T13:42:46;26.10;39.30
34776;DHT22;20989;52.566;13.346;2022-07-06T13:45:47;26.20;39.30
34776;DHT22;20989;52.566;13.346;2022-07-06T13:48:48;26.20;39.40
34776;DHT22;20989;52.566;13.346;2022-07-06T13:51:49;26.20;39.60
34776;DHT22;20989;52.566;13.346;2022-07-06T13:54:50;26.20;39.20
34776;DHT22;20989;52.566;13.346;2022-07-06T13:57:50;26.20;39.30
34776;DHT22;20989;52.566;13.346;2022-07-06T14:00:51;26.20;39.20
34776;DHT22;20989;52.566;13.346;2022-07-06T14:03:52;26.20;39.50
34776;DHT22;20989;52.566;13.346;2022-07-06T14:06:53;26.20;39.50
34776;DHT22;20989;52.566;13.346;2022-07-06T14:09:54;26.20;39.60
34776;DHT22;20989;52.566;13.346;2022-07-06T14:12:55;26.20;39.40
34776;DHT22;20989;52.566;13.346;2022-07-06T14:15:56;26.20;39.20
34776;DHT22;20989;52.566;13.346;2022-07-06T14:18:58;26.20;39.30
34776;DHT22;20989;52.566;13.346;2022-07-06T14:21:59;26.20;39.00
34776;DHT22;20989;52.566;13.346;2022-07-06T14:24:59;26.20;39.10
34776;DHT22;20989;52.566;13.346;2022-07-06T14:28:00;26.20;39.20
34776;DHT22;20989;52.566;13.346;2022-07-06T14:31:02;26.20;38.90
34776;DHT22;20989;52.566;13.346;2022-07-06T14:34:03;26.20;39.00
34776;DHT22;20989;52.566;13.346;2022-07-06T14:37:04;26.20;38.90
34776;DHT22;20989;52.566;13.346;2022-07-06T14:40:05;26.20;39.10
34776;DHT22;20989;52.566;13.346;2022-07-06T14:43:06;26.20;39.00
34776;DHT22;20989;52.566;13.346;2022-07-06T14:46:07;26.20;38.90
34776;DHT22;20989;52.566;13.346;2022-07-06T14:49:08;26.20;39.00
34776;DHT22;20989;52.566;13.346;2022-07-06T14:52:08;26.10;39.00
34776;DHT22;20989;52.566;13.346;2022-07-06T14:55:10;26.10;38.80
34776;DHT22;20989;52.566;13.346;2022-07-06T14:58:11;26.10;39.10
34776;DHT22;20989;52.566;13.346;2022-07-06T15:01:14;26.10;38.90
34776;DHT22;20989;52.566;13.346;2022-07-06T15:04:14;26.10;39.00
34776;DHT22;20989;52.566;13.346;2022-07-06T15:07:17;26.10;39.30
34776;DHT22;20989;52.566;13.346;2022-07-06T15:10:18;26.10;39.20
34776;DHT22;20989;52.566;13.346;2022-07-06T15:13:22;26.10;39.20
34776;DHT22;20989;52.566;13.346;2022-07-06T15:16:23;26.10;39.40
34776;DHT22;20989;52.566;13.346;2022-07-06T15:19:25;26.10;39.30
34776;DHT22;20989;52.566;13.346;2022-07-06T15:22:27;26.10;39.20
34776;DHT22;20989;52.566;13.346;2022-07-06T15:25:28;26.10;39.40
34776;DHT22;20989;52.566;13.346;2022-07-06T15:28:29;26.10;39.40
34776;DHT22;20989;52.566;13.346;2022-07-06T15:31:30;26.10;39.40
34776;DHT22;20989;52.566;13.346;2022-07-06T15:34:32;26.10;39.50
34776;DHT22;20989;52.566;13.346;2022-07-06T15:37:34;26.10;39.40
34776;DHT22;20989;52.566;13.346;2022-07-06T15:40:35;26.10;39.60
34776;DHT22;20989;52.566;13.346;2022-07-06T15:43:40;26.10;39.40
34776;DHT22;20989;52.566;13.346;2022-07-06T15:46:41;26.10;39.50
34776;DHT22;20989;52.566;13.346;2022-07-06T15:49:42;26.10;39.40
34776;DHT22;20989;52.566;13.346;2022-07-06T15:52:43;26.10;39.50
34776;DHT22;20989;52.566;13.346;2022-07-06T15:55:44;26.10;39.50
34776;DHT22;20989;52.566;13.346;2022-07-06T15:58:45;26.10;39.60
34776;DHT22;20989;52.566;13.346;2022-07-06T16:01:46;26.10;39.80
34776;DHT22;20989;52.566;13.346;2022-07-06T16:04:46;26.10;39.70
34776;DHT22;20989;52.566;13.346;2022-07-06T16:07:49;26.10;39.70
34776;DHT22;20989;52.566;13.346;2022-07-06T16:10:51;26.10;39.80
34776;DHT22;20989;52.566;13.346;2022-07-06T16:13:51;26.10;40.20
34776;DHT22;20989;52.566;13.346;2022-07-06T16:16:52;26.10;39.80
34776;DHT22;20989;52.566;13.346;2022-07-06T16:19:53;26.10;39.60
34776;DHT22;20989;52.566;13.346;2022-07-06T16:22:54;26.10;39.70
34776;DHT22;20989;52.566;13.346;2022-07-06T16:25:54;26.10;39.60
34776;DHT22;20989;52.566;13.346;2022-07-06T16:28:55;26.10;39.60
34776;DHT22;20989;52.566;13.346;2022-07-06T16:31:56;26.10;39.70
34776;DHT22;20989;52.566;13.346;2022-07-06T16:34:57;26.10;39.80
34776;DHT22;20989;52.566;13.346;2022-07-06T16:37:58;26.10;39.40
34776;DHT22;20989;52.566;13.346;2022-07-06T16:40:59;26.10;39.40
34776;DHT22;20989;52.566;13.346;2022-07-06T16:43:59;26.00;39.30
34776;DHT22;20989;52.566;13.346;2022-07-06T16:47:00;26.00;39.10
34776;DHT22;20989;52.566;13.346;2022-07-06T16:50:01;26.00;39.20
34776;DHT22;20989;52.566;13.346;2022-07-06T16:53:02;26.10;39.30
34776;DHT22;20989;52.566;13.346;2022-07-06T16:56:03;26.00;39.10
34776;DHT22;20989;52.566;13.346;2022-07-06T16:59:04;26.00;39.30
34776;DHT22;20989;52.566;13.346;2022-07-06T17:02:05;26.00;39.30
34776;DHT22;20989;52.566;13.346;2022-07-06T17:05:06;26.00;39.40
34776;DHT22;20989;52.566;13.346;2022-07-06T17:08:06;26.00;39.30
34776;DHT22;20989;52.566;13.346;2022-07-06T17:11:07;26.00;39.40
34776;DHT22;20989;52.566;13.346;2022-07-06T17:14:08;26.00;39.40
34776;DHT22;20989;52.566;13.346;2022-07-06T17:17:09;26.00;39.40
34776;DHT22;20989;52.566;13.346;2022-07-06T17:20:10;26.00;39.50
34776;DHT22;20989;52.566;13.346;2022-07-06T17:23:10;26.00;39.60
34776;DHT22;20989;52.566;13.346;2022-07-06T17:26:11;26.00;39.70
34776;DHT22;20989;52.566;13.346;2022-07-06T17:29:12;26.10;39.70
34776;DHT22;20989;52.566;13.346;2022-07-06T17:32:12;26.00;39.70
34776;DHT22;20989;52.566;13.346;2022-07-06T17:35:14;26.00;39.70
34776;DHT22;20989;52.566;13.346;2022-07-06T17:38:15;26.00;39.70
34776;DHT22;20989;52.566;13.346;2022-07-06T17:41:17;26.00;39.50
34776;DHT22;20989;52.566;13.346;2022-07-06T17:44:18;26.00;40.00
34776;DHT22;20989;52.566;13.346;2022-07-06T17:47:18;26.00;39.60
34776;DHT22;20989;52.566;13.346;2022-07-06T17:50:20;26.00;39.50
34776;DHT22;20989;52.566;13.346;2022-07-06T17:53:21;26.00;39.60
34776;DHT22;20989;52.566;13.346;2022-07-06T17:56:21;26.00;39.70
34776;DHT22;20989;52.566;13.346;2022-07-06T17:59:22;26.00;39.70
34776;DHT22;20989;52.566;13.346;2022-07-06T18:02:23;26.00;39.70
34776;DHT22;20989;52.566;13.346;2022-07-06T18:05:24;26.00;39.70
34776;DHT22;20989;52.566;13.346;2022-07-06T18:08:28;26.00;39.70
34776;DHT22;20989;52.566;13.346;2022-07-06T18:11:28;26.00;39.70
34776;DHT22;20989;52.566;13.346;2022-07-06T18:14:29;26.00;39.70
34776;DHT22;20989;52.566;13.346;2022-07-06T18:17:30;26.00;40.20
34776;DHT22;20989;52.566;13.346;2022-07-06T18:20:31;26.00;39.70
34776;DHT22;20989;52.566;13.346;2022-07-06T18:23:32;26.00;39.80
34776;DHT22;20989;52.566;13.346;2022-07-06T18:26:33;26.00;39.80
34776;DHT22;20989;52.566;13.346;2022-07-06T18:29:33;26.00;39.90
34776;DHT22;20989;52.566;13.346;2022-07-06T18:32:34;26.00;39.90
34776;DHT22;20989;52.566;13.346;2022-07-06T18:35:35;26.00;40.00
34776;DHT22;20989;52.566;13.346;2022-07-06T18:38:36;26.00;39.70
34776;DHT22;20989;52.566;13.346;2022-07-06T18:41:37;26.00;39.80
34776;DHT22;20989;52.566;13.346;2022-07-06T18:44:38;26.00;39.80
34776;DHT22;20989;52.566;13.346;2022-07-06T18:47:38;26.00;39.90
34776;DHT22;20989;52.566;13.346;2022-07-06T18:50:40;26.00;39.90